sensor_id;sensor_type;location;lat;lon;timestamp;temperature;humidity
9772;DHT22;4925;52.588;13.370;2023-10-19T00:01:16;9.20;99.90
9772;DHT22;4925;52.588;13.370;2023-10-19T00:03:43;9.10;99.90
9772;DHT22;4925;52.588;13.370;2023-10-19T00:06:10;9.00;99.90
9772;DHT22;4925;52.588;13.370;2023-10-19T00:08:37;9.00;99.90
9772;DHT22;4925;52.588;13.370;2023-10-19T00:11:07;9.00;1.00
9772;DHT22;4925;52.588;13.370;2023-10-19T00:13:47;8.90;1.00
9772;DHT22;4925;52.588;13.370;2023-10-19T00:16:16;8.90;1.00
9772;DHT22;4925;52.588;13.370;2023-10-19T00:18:43;8.90;1.00
9772;DHT22;4925;52.588;13.370;2023-10-19T00:21:10;9.10;1.00
9772;DHT22;4925;52.588;13.370;2023-10-19T00:23:55;9.00;99.90
9772;DHT22;4925;52.588;13.370;2023-10-19T00:26:26;9.00;99.90
9772;DHT22;4925;52.588;13.370;2023-10-19T00:28:52;9.00;99.90
9772;DHT22;4925;52.588;13.370;2023-10-19T00:31:21;9.00;1.00
9772;DHT22;4925;52.588;13.370;2023-10-19T00:33:47;9.00;1.00
9772;DHT22;4925;52.588;13.370;2023-10-19T00:36:13;8.90;1.00
9772;DHT22;4925;52.588;13.370;2023-10-19T00:38:40;9.00;1.00
9772;DHT22;4925;52.588;13.370;2023-10-19T00:41:08;8.90;1.00
9772;DHT22;4925;52.588;13.370;2023-10-19T00:43:44;8.90;1.00
9772;DHT22;4925;52.588;13.370;2023-10-19T00:46:11;8.90;1.00
9772;DHT22;4925;52.588;13.370;2023-10-19T00:48:54;9.00;1.00
9772;DHT22;4925;52.588;13.370;2023-10-19T00:51:22;8.90;1.00
9772;DHT22;4925;52.588;13.370;2023-10-19T00:54:00;8.90;1.00
9772;DHT22;4925;52.588;13.370;2023-10-19T00:56:33;8.80;1.00
9772;DHT22;4925;52.588;13.370;2023-10-19T00:59:01;8.80;1.00
9772;DHT22;4925;52.588;13.370;2023-10-19T01:01:53;8.80;1.00
9772;DHT22;4925;52.588;13.370;2023-10-19T01:04:37;8.80;1.00
9772;DHT22;4925;52.588;13.370;2023-10-19T01:07:09;8.70;1.00
9772;DHT22;4925;52.588;13.370;2023-10-19T01:09:47;8.60;1.00
9772;DHT22;4925;52.588;13.370;2023-10-19T01:12:12;8.70;1.00
9772;DHT22;4925;52.588;13.370;2023-10-19T01:17:54;8.70;1.00
9772;DHT22;4925;52.588;13.370;2023-10-19T01:20:30;8.80;1.00
9772;DHT22;4925;52.588;13.370;2023-10-19T01:25:44;8.70;1.00
9772;DHT22;4925;52.588;13.370;2023-10-19T01:28:20;8.80;1.00
9772;DHT22;4925;52.588;13.370;2023-10-19T01:30:48;8.80;1.00
9772;DHT22;4925;52.588;13.370;2023-10-19T01:33:20;8.80;1.00
9772;DHT22;4925;52.588;13.370;2023-10-19T01:35:49;8.80;1.00
9772;DHT22;4925;52.588;13.370;2023-10-19T01:38:34;8.80;1.00
9772;DHT22;4925;52.588;13.370;2023-10-19T01:41:02;8.80;1.00
9772;DHT22;4925;52.588;13.370;2023-10-19T01:43:31;8.90;1.00
9772;DHT22;4925;52.588;13.370;2023-10-19T01:45:58;8.80;1.00
9772;DHT22;4925;52.588;13.370;2023-10-19T01:48:29;8.70;1.00
9772;DHT22;4925;52.588;13.370;2023-10-19T01:51:04;8.80;1.00
9772;DHT22;4925;52.588;13.370;2023-10-19T01:53:32;8.80;1.00
9772;DHT22;4925;52.588;13.370;2023-10-19T01:55:59;8.80;1.00
9772;DHT22;4925;52.588;13.370;2023-10-19T01:58:25;8.70;1.00
9772;DHT22;4925;52.588;13.370;2023-10-19T02:00:55;8.70;1.00
9772;DHT22;4925;52.588;13.370;2023-10-19T02:03:25;8.70;1.00
9772;DHT22;4925;52.588;13.370;2023-10-19T02:06:00;8.70;1.00
9772;DHT22;4925;52.588;13.370;2023-10-19T02:08:32;8.60;1.00
9772;DHT22;4925;52.588;13.370;2023-10-19T02:10:58;8.60;1.00
9772;DHT22;4925;52.588;13.370;2023-10-19T02:13:27;8.60;1.00
9772;DHT22;4925;52.588;13.370;2023-10-19T02:15:53;8.60;1.00
9772;DHT22;4925;52.588;13.370;2023-10-19T02:18:21;8.70;1.00
9772;DHT22;4925;52.588;13.370;2023-10-19T02:20:49;8.70;1.00
9772;DHT22;4925;52.588;13.370;2023-10-19T02:23:19;8.70;1.00
9772;DHT22;4925;52.588;13.370;2023-10-19T02:25:45;8.70;1.00
9772;DHT22;4925;52.588;13.370;2023-10-19T02:28:11;8.90;1.00
9772;DHT22;4925;52.588;13.370;2023-10-19T02:30:37;8.90;1.00
9772;DHT22;4925;52.588;13.370;2023-10-19T02:33:06;8.90;1.00
9772;DHT22;4925;52.588;13.370;2023-10-19T02:35:31;8.70;1.00
9772;DHT22;4925;52.588;13.370;2023-10-19T02:37:57;8.80;1.00
9772;DHT22;4925;52.588;13.370;2023-10-19T02:40:23;8.80;1.00
9772;DHT22;4925;52.588;13.370;2023-10-19T02:42:50;8.70;1.00
9772;DHT22;4925;52.588;13.370;2023-10-19T02:45:16;8.80;1.00
9772;DHT22;4925;52.588;13.370;2023-10-19T02:47:44;8.90;1.00
9772;DHT22;4925;52.588;13.370;2023-10-19T02:50:10;8.90;1.00
9772;DHT22;4925;52.588;13.370;2023-10-19T02:52:40;9.00;1.00
9772;DHT22;4925;52.588;13.370;2023-10-19T02:55:07;8.90;1.00
9772;DHT22;4925;52.588;13.370;2023-10-19T02:57:34;9.10;1.00
9772;DHT22;4925;52.588;13.370;2023-10-19T03:00:00;9.00;1.00
9772;DHT22;4925;52.588;13.370;2023-10-19T03:02:28;9.00;1.00
9772;DHT22;4925;52.588;13.370;2023-10-19T03:04:54;9.00;1.00
9772;DHT22;4925;52.588;13.370;2023-10-19T03:07:22;9.00;1.00
9772;DHT22;4925;52.588;13.370;2023-10-19T03:09:48;9.00;1.00
9772;DHT22;4925;52.588;13.370;2023-10-19T03:12:14;9.00;1.00
9772;DHT22;4925;52.588;13.370;2023-10-19T03:14:40;9.10;1.00
9772;DHT22;4925;52.588;13.370;2023-10-19T03:17:13;9.10;1.00
9772;DHT22;4925;52.588;13.370;2023-10-19T03:19:39;9.10;1.00
9772;DHT22;4925;52.588;13.370;2023-10-19T03:22:05;9.10;1.00
9772;DHT22;4925;52.588;13.370;2023-10-19T03:24:34;9.10;1.00
9772;DHT22;4925;52.588;13.370;2023-10-19T03:27:11;9.10;1.00
9772;DHT22;4925;52.588;13.370;2023-10-19T03:29:52;9.00;1.00
9772;DHT22;4925;52.588;13.370;2023-10-19T03:32:20;9.00;1.00
9772;DHT22;4925;52.588;13.370;2023-10-19T03:34:54;9.00;1.00
9772;DHT22;4925;52.588;13.370;2023-10-19T03:37:27;9.10;1.00
9772;DHT22;4925;52.588;13.370;2023-10-19T03:39:56;9.10;1.00
9772;DHT22;4925;52.588;13.370;2023-10-19T03:42:22;9.00;1.00
9772;DHT22;4925;52.588;13.370;2023-10-19T03:44:51;9.00;1.00
9772;DHT22;4925;52.588;13.370;2023-10-19T03:47:22;9.00;1.00
9772;DHT22;4925;52.588;13.370;2023-10-19T03:49:52;9.00;1.00
9772;DHT22;4925;52.588;13.370;2023-10-19T03:52:18;9.00;1.00
9772;DHT22;4925;52.588;13.370;2023-10-19T03:54:44;9.00;1.00
9772;DHT22;4925;52.588;13.370;2023-10-19T03:57:17;9.00;1.00
9772;DHT22;4925;52.588;13.370;2023-10-19T03:59:53;9.00;1.00
9772;DHT22;4925;52.588;13.370;2023-10-19T04:02:22;8.90;1.00
9772;DHT22;4925;52.588;13.370;2023-10-19T04:05:01;8.90;1.00
9772;DHT22;4925;52.588;13.370;2023-10-19T04:07:29;8.90;1.00
9772;DHT22;4925;52.588;13.370;2023-10-19T04:09:57;8.90;1.00
9772;DHT22;4925;52.588;13.370;2023-10-19T04:12:32;8.80;1.00
9772;DHT22;4925;52.588;13.370;2023-10-19T04:15:02;8.80;1.00
9772;DHT22;4925;52.588;13.370;2023-10-19T04:17:47;8.80;1.00
9772;DHT22;4925;52.588;13.370;2023-10-19T04:20:16;8.90;1.00
9772;DHT22;4925;52.588;13.370;2023-10-19T04:22:42;8.80;1.00
9772;DHT22;4925;52.588;13.370;2023-10-19T04:25:08;8.80;1.00
9772;DHT22;4925;52.588;13.370;2023-10-19T04:27:34;8.80;1.00
9772;DHT22;4925;52.588;13.370;2023-10-19T04:30:03;8.80;1.00
9772;DHT22;4925;52.588;13.370;2023-10-19T04:32:29;8.90;1.00
9772;DHT22;4925;52.588;13.370;2023-10-19T04:34:56;8.80;1.00
9772;DHT22;4925;52.588;13.370;2023-10-19T04:37:22;8.70;1.00
9772;DHT22;4925;52.588;13.370;2023-10-19T04:39:49;8.80;1.00
9772;DHT22;4925;52.588;13.370;2023-10-19T04:42:15;8.80;1.00
9772;DHT22;4925;52.588;13.370;2023-10-19T04:44:41;8.80;1.00
9772;DHT22;4925;52.588;13.370;2023-10-19T04:47:07;8.70;1.00
9772;DHT22;4925;52.588;13.370;2023-10-19T04:49:35;8.70;1.00
9772;DHT22;4925;52.588;13.370;2023-10-19T04:52:05;8.70;1.00
9772;DHT22;4925;52.588;13.370;2023-10-19T04:54:31;8.70;1.00
9772;DHT22;4925;52.588;13.370;2023-10-19T04:56:57;8.60;1.00
9772;DHT22;4925;52.588;13.370;2023-10-19T04:59:22;8.60;1.00
9772;DHT22;4925;52.588;13.370;2023-10-19T05:01:48;8.60;1.00
9772;DHT22;4925;52.588;13.370;2023-10-19T05:04:15;8.70;1.00
9772;DHT22;4925;52.588;13.370;2023-10-19T05:06:42;8.70;1.00
9772;DHT22;4925;52.588;13.370;2023-10-19T05:09:09;8.70;1.00
9772;DHT22;4925;52.588;13.370;2023-10-19T05:11:34;8.70;1.00
9772;DHT22;4925;52.588;13.370;2023-10-19T05:14:01;8.70;1.00
9772;DHT22;4925;52.588;13.370;2023-10-19T05:16:26;8.60;1.00
9772;DHT22;4925;52.588;13.370;2023-10-19T05:18:52;8.70;1.00
9772;DHT22;4925;52.588;13.370;2023-10-19T05:21:18;8.70;1.00
9772;DHT22;4925;52.588;13.370;2023-10-19T05:23:43;8.70;1.00
9772;DHT22;4925;52.588;13.370;2023-10-19T05:26:09;8.80;1.00
9772;DHT22;4925;52.588;13.370;2023-10-19T05:28:36;8.70;1.00
9772;DHT22;4925;52.588;13.370;2023-10-19T05:31:02;8.70;1.00
9772;DHT22;4925;52.588;13.370;2023-10-19T05:33:31;8.80;1.00
9772;DHT22;4925;52.588;13.370;2023-10-19T05:35:58;8.80;1.00
9772;DHT22;4925;52.588;13.370;2023-10-19T05:38:28;8.70;1.00
9772;DHT22;4925;52.588;13.370;2023-10-19T05:40:56;8.70;1.00
9772;DHT22;4925;52.588;13.370;2023-10-19T05:43:22;8.80;1.00
9772;DHT22;4925;52.588;13.370;2023-10-19T05:45:48;8.70;1.00
9772;DHT22;4925;52.588;13.370;2023-10-19T05:48:15;8.70;1.00
9772;DHT22;4925;52.588;13.370;2023-10-19T05:50:42;8.80;1.00
9772;DHT22;4925;52.588;13.370;2023-10-19T05:53:08;8.70;1.00
9772;DHT22;4925;52.588;13.370;2023-10-19T05:55:34;8.70;1.00
9772;DHT22;4925;52.588;13.370;2023-10-19T05:58:01;8.70;1.00
9772;DHT22;4925;52.588;13.370;2023-10-19T06:00:30;8.70;1.00
9772;DHT22;4925;52.588;13.370;2023-10-19T06:02:56;8.60;1.00
9772;DHT22;4925;52.588;13.370;2023-10-19T06:05:23;8.60;1.00
9772;DHT22;4925;52.588;13.370;2023-10-19T06:07:50;8.60;1.00
9772;DHT22;4925;52.588;13.370;2023-10-19T06:10:20;8.60;1.00
9772;DHT22;4925;52.588;13.370;2023-10-19T06:12:48;8.50;1.00
9772;DHT22;4925;52.588;13.370;2023-10-19T06:15:16;8.50;1.00
9772;DHT22;4925;52.588;13.370;2023-10-19T06:17:44;8.50;1.00
9772;DHT22;4925;52.588;13.370;2023-10-19T06:20:16;8.50;1.00
9772;DHT22;4925;52.588;13.370;2023-10-19T06:22:53;8.50;1.00
9772;DHT22;4925;52.588;13.370;2023-10-19T06:25:20;8.40;1.00
9772;DHT22;4925;52.588;13.370;2023-10-19T06:27:50;8.40;1.00
9772;DHT22;4925;52.588;13.370;2023-10-19T06:30:18;8.40;1.00
9772;DHT22;4925;52.588;13.370;2023-10-19T06:32:53;8.40;19.90
9772;DHT22;4925;52.588;13.370;2023-10-19T06:35:20;8.30;44.90
9772;DHT22;4925;52.588;13.370;2023-10-19T06:37:47;8.40;39.60
9772;DHT22;4925;52.588;13.370;2023-10-19T06:40:17;8.40;74.50
9772;DHT22;4925;52.588;13.370;2023-10-19T06:42:44;8.40;97.80
9772;DHT22;4925;52.588;13.370;2023-10-19T06:45:11;8.40;91.30
9772;DHT22;4925;52.588;13.370;2023-10-19T06:47:40;8.40;72.50
9772;DHT22;4925;52.588;13.370;2023-10-19T06:50:08;8.50;58.80
9772;DHT22;4925;52.588;13.370;2023-10-19T06:52:39;8.50;49.00
9772;DHT22;4925;52.588;13.370;2023-10-19T06:55:06;8.60;43.50
9772;DHT22;4925;52.588;13.370;2023-10-19T06:57:58;8.60;46.60
9772;DHT22;4925;52.588;13.370;2023-10-19T07:00:25;8.60;24.50
9772;DHT22;4925;52.588;13.370;2023-10-19T07:02:56;8.50;18.20
9772;DHT22;4925;52.588;13.370;2023-10-19T07:05:26;8.50;30.90
9772;DHT22;4925;52.588;13.370;2023-10-19T07:07:56;8.50;34.30
9772;DHT22;4925;52.588;13.370;2023-10-19T07:10:23;8.50;15.00
9772;DHT22;4925;52.588;13.370;2023-10-19T07:12:54;8.50;17.00
9772;DHT22;4925;52.588;13.370;2023-10-19T07:15:20;8.50;16.60
9772;DHT22;4925;52.588;13.370;2023-10-19T07:17:50;8.50;32.40
9772;DHT22;4925;52.588;13.370;2023-10-19T07:20:18;8.60;38.20
9772;DHT22;4925;52.588;13.370;2023-10-19T07:22:52;8.60;46.20
9772;DHT22;4925;52.588;13.370;2023-10-19T07:25:17;8.70;34.20
9772;DHT22;4925;52.588;13.370;2023-10-19T07:27:47;8.70;17.10
9772;DHT22;4925;52.588;13.370;2023-10-19T07:30:13;8.70;17.20
9772;DHT22;4925;52.588;13.370;2023-10-19T07:32:41;8.70;20.70
9772;DHT22;4925;52.588;13.370;2023-10-19T07:35:07;8.70;9.70
9772;DHT22;4925;52.588;13.370;2023-10-19T07:37:34;8.70;1.50
9772;DHT22;4925;52.588;13.370;2023-10-19T07:40:02;8.60;2.40
9772;DHT22;4925;52.588;13.370;2023-10-19T07:42:28;8.60;2.30
9772;DHT22;4925;52.588;13.370;2023-10-19T07:44:57;8.70;5.10
9772;DHT22;4925;52.588;13.370;2023-10-19T07:47:23;8.70;1.10
9772;DHT22;4925;52.588;13.370;2023-10-19T07:49:49;8.80;1.00
9772;DHT22;4925;52.588;13.370;2023-10-19T07:52:17;8.90;1.00
9772;DHT22;4925;52.588;13.370;2023-10-19T07:54:43;8.90;1.00
9772;DHT22;4925;52.588;13.370;2023-10-19T07:57:08;9.00;1.00
9772;DHT22;4925;52.588;13.370;2023-10-19T07:59:38;9.00;1.00
9772;DHT22;4925;52.588;13.370;2023-10-19T08:02:03;8.90;1.00
9772;DHT22;4925;52.588;13.370;2023-10-19T08:04:32;9.00;1.00
9772;DHT22;4925;52.588;13.370;2023-10-19T08:06:59;9.00;1.00
9772;DHT22;4925;52.588;13.370;2023-10-19T08:09:25;9.10;1.00
9772;DHT22;4925;52.588;13.370;2023-10-19T08:11:57;9.20;1.00
9772;DHT22;4925;52.588;13.370;2023-10-19T08:14:25;9.20;1.00
9772;DHT22;4925;52.588;13.370;2023-10-19T08:16:52;9.20;1.00
9772;DHT22;4925;52.588;13.370;2023-10-19T08:19:18;9.30;1.00
9772;DHT22;4925;52.588;13.370;2023-10-19T08:21:44;9.30;1.00
9772;DHT22;4925;52.588;13.370;2023-10-19T08:24:11;9.20;1.00
9772;DHT22;4925;52.588;13.370;2023-10-19T08:26:44;9.30;1.00
9772;DHT22;4925;52.588;13.370;2023-10-19T08:29:10;9.40;1.00
9772;DHT22;4925;52.588;13.370;2023-10-19T08:31:40;9.40;1.00
9772;DHT22;4925;52.588;13.370;2023-10-19T08:34:07;9.30;1.00
9772;DHT22;4925;52.588;13.370;2023-10-19T08:36:35;9.40;1.00
9772;DHT22;4925;52.588;13.370;2023-10-19T08:39:04;9.40;1.00
9772;DHT22;4925;52.588;13.370;2023-10-19T08:41:35;9.50;1.00
9772;DHT22;4925;52.588;13.370;2023-10-19T08:44:07;9.50;1.00
9772;DHT22;4925;52.588;13.370;2023-10-19T08:46:44;9.60;1.00
9772;DHT22;4925;52.588;13.370;2023-10-19T08:49:14;9.60;1.00
9772;DHT22;4925;52.588;13.370;2023-10-19T08:51:46;9.80;1.00
9772;DHT22;4925;52.588;13.370;2023-10-19T08:54:13;9.80;1.00
9772;DHT22;4925;52.588;13.370;2023-10-19T08:56:40;9.90;1.00
9772;DHT22;4925;52.588;13.370;2023-10-19T08:59:07;9.90;1.00
9772;DHT22;4925;52.588;13.370;2023-10-19T09:01:33;10.00;1.00
9772;DHT22;4925;52.588;13.370;2023-10-19T09:04:01;9.90;1.00
9772;DHT22;4925;52.588;13.370;2023-10-19T09:06:27;9.90;1.00
9772;DHT22;4925;52.588;13.370;2023-10-19T09:08:55;10.00;1.00
9772;DHT22;4925;52.588;13.370;2023-10-19T09:11:24;10.10;1.00
9772;DHT22;4925;52.588;13.370;2023-10-19T09:13:51;10.10;1.00
9772;DHT22;4925;52.588;13.370;2023-10-19T09:16:21;10.10;1.00
9772;DHT22;4925;52.588;13.370;2023-10-19T09:18:50;10.20;1.00
9772;DHT22;4925;52.588;13.370;2023-10-19T09:21:18;10.30;1.00
9772;DHT22;4925;52.588;13.370;2023-10-19T09:23:52;10.30;1.00
9772;DHT22;4925;52.588;13.370;2023-10-19T09:26:18;10.10;1.00
9772;DHT22;4925;52.588;13.370;2023-10-19T09:28:48;10.10;1.00
9772;DHT22;4925;52.588;13.370;2023-10-19T09:31:14;10.20;1.00
9772;DHT22;4925;52.588;13.370;2023-10-19T09:33:45;10.20;1.00
9772;DHT22;4925;52.588;13.370;2023-10-19T09:36:13;10.20;1.00
9772;DHT22;4925;52.588;13.370;2023-10-19T09:38:43;10.20;1.00
9772;DHT22;4925;52.588;13.370;2023-10-19T09:41:12;10.20;1.00
9772;DHT22;4925;52.588;13.370;2023-10-19T09:43:45;10.20;1.00
9772;DHT22;4925;52.588;13.370;2023-10-19T09:46:12;10.20;1.00
9772;DHT22;4925;52.588;13.370;2023-10-19T09:48:42;10.30;1.00
9772;DHT22;4925;52.588;13.370;2023-10-19T09:51:10;10.40;1.00
9772;DHT22;4925;52.588;13.370;2023-10-19T09:53:38;10.30;1.00
9772;DHT22;4925;52.588;13.370;2023-10-19T09:56:06;10.40;1.00
9772;DHT22;4925;52.588;13.370;2023-10-19T09:58:51;10.40;1.00
9772;DHT22;4925;52.588;13.370;2023-10-19T10:01:20;10.50;1.00
9772;DHT22;4925;52.588;13.370;2023-10-19T10:03:49;10.50;1.00
9772;DHT22;4925;52.588;13.370;2023-10-19T10:06:30;10.40;1.00
9772;DHT22;4925;52.588;13.370;2023-10-19T10:09:00;10.40;1.00
9772;DHT22;4925;52.588;13.370;2023-10-19T10:11:27;10.50;1.00
9772;DHT22;4925;52.588;13.370;2023-10-19T10:13:55;10.50;1.00
9772;DHT22;4925;52.588;13.370;2023-10-19T10:16:27;10.50;1.00
9772;DHT22;4925;52.588;13.370;2023-10-19T10:18:59;10.60;1.00
9772;DHT22;4925;52.588;13.370;2023-10-19T10:21:26;10.50;1.00
9772;DHT22;4925;52.588;13.370;2023-10-19T10:26:27;10.50;1.00
9772;DHT22;4925;52.588;13.370;2023-10-19T10:29:25;10.50;1.00
9772;DHT22;4925;52.588;13.370;2023-10-19T10:31:53;10.50;1.00
9772;DHT22;4925;52.588;13.370;2023-10-19T10:37:06;10.30;1.00
9772;DHT22;4925;52.588;13.370;2023-10-19T10:39:35;10.30;1.00
9772;DHT22;4925;52.588;13.370;2023-10-19T10:42:03;10.40;1.00
9772;DHT22;4925;52.588;13.370;2023-10-19T10:44:40;10.30;1.00
9772;DHT22;4925;52.588;13.370;2023-10-19T10:47:08;10.20;1.00
9772;DHT22;4925;52.588;13.370;2023-10-19T10:49:54;10.30;1.00
9772;DHT22;4925;52.588;13.370;2023-10-19T10:54:56;10.20;1.00
9772;DHT22;4925;52.588;13.370;2023-10-19T10:57:22;10.10;1.00
9772;DHT22;4925;52.588;13.370;2023-10-19T11:00:04;10.10;1.00
9772;DHT22;4925;52.588;13.370;2023-10-19T11:02:32;10.00;1.00
9772;DHT22;4925;52.588;13.370;2023-10-19T11:04:58;10.00;1.00
9772;DHT22;4925;52.588;13.370;2023-10-19T11:07:25;10.00;1.00
9772;DHT22;4925;52.588;13.370;2023-10-19T11:09:51;10.00;1.00
9772;DHT22;4925;52.588;13.370;2023-10-19T11:12:16;9.90;1.00
9772;DHT22;4925;52.588;13.370;2023-10-19T11:14:56;9.80;1.00
9772;DHT22;4925;52.588;13.370;2023-10-19T11:17:24;9.90;1.00
9772;DHT22;4925;52.588;13.370;2023-10-19T11:19:56;10.00;1.00
9772;DHT22;4925;52.588;13.370;2023-10-19T11:22:26;10.00;1.00
9772;DHT22;4925;52.588;13.370;2023-10-19T11:24:55;10.00;1.00
9772;DHT22;4925;52.588;13.370;2023-10-19T11:27:25;10.00;1.00
9772;DHT22;4925;52.588;13.370;2023-10-19T11:29:55;10.00;1.00
9772;DHT22;4925;52.588;13.370;2023-10-19T11:32:22;9.90;1.00
9772;DHT22;4925;52.588;13.370;2023-10-19T11:34:54;9.90;1.00
9772;DHT22;4925;52.588;13.370;2023-10-19T11:37:20;9.90;1.00
9772;DHT22;4925;52.588;13.370;2023-10-19T11:39:46;9.90;1.00
9772;DHT22;4925;52.588;13.370;2023-10-19T11:42:12;9.90;6.50
9772;DHT22;4925;52.588;13.370;2023-10-19T11:44:38;10.00;15.30
9772;DHT22;4925;52.588;13.370;2023-10-19T11:47:06;9.90;12.80
9772;DHT22;4925;52.588;13.370;2023-10-19T11:49:33;9.80;39.40
9772;DHT22;4925;52.588;13.370;2023-10-19T11:52:00;9.80;61.10
9772;DHT22;4925;52.588;13.370;2023-10-19T11:54:25;9.90;74.30
9772;DHT22;4925;52.588;13.370;2023-10-19T11:59:30;9.90;93.40
9772;DHT22;4925;52.588;13.370;2023-10-19T12:01:56;10.10;98.70
9772;DHT22;4925;52.588;13.370;2023-10-19T12:04:25;10.10;99.90
9772;DHT22;4925;52.588;13.370;2023-10-19T12:06:51;10.10;99.90
9772;DHT22;4925;52.588;13.370;2023-10-19T12:09:17;10.20;99.90
9772;DHT22;4925;52.588;13.370;2023-10-19T12:11:43;10.20;99.90
9772;DHT22;4925;52.588;13.370;2023-10-19T12:14:12;10.20;99.90
9772;DHT22;4925;52.588;13.370;2023-10-19T12:16:40;10.20;99.90
9772;DHT22;4925;52.588;13.370;2023-10-19T12:19:06;10.10;99.90
9772;DHT22;4925;52.588;13.370;2023-10-19T12:21:36;10.10;99.90
9772;DHT22;4925;52.588;13.370;2023-10-19T12:24:03;10.20;99.90
9772;DHT22;4925;52.588;13.370;2023-10-19T12:26:30;10.20;99.90
9772;DHT22;4925;52.588;13.370;2023-10-19T12:28:56;10.20;99.90
9772;DHT22;4925;52.588;13.370;2023-10-19T12:31:22;10.30;99.90
9772;DHT22;4925;52.588;13.370;2023-10-19T12:33:48;10.40;99.90
9772;DHT22;4925;52.588;13.370;2023-10-19T12:36:14;10.30;99.90
9772;DHT22;4925;52.588;13.370;2023-10-19T12:39:00;10.30;99.90
9772;DHT22;4925;52.588;13.370;2023-10-19T12:41:27;10.30;99.90
9772;DHT22;4925;52.588;13.370;2023-10-19T12:43:56;10.30;99.90
9772;DHT22;4925;52.588;13.370;2023-10-19T12:46:28;10.40;99.90
9772;DHT22;4925;52.588;13.370;2023-10-19T12:48:56;10.50;99.90
9772;DHT22;4925;52.588;13.370;2023-10-19T12:51:23;10.40;99.90
9772;DHT22;4925;52.588;13.370;2023-10-19T12:53:52;10.40;99.90
9772;DHT22;4925;52.588;13.370;2023-10-19T12:56:19;10.30;99.90
9772;DHT22;4925;52.588;13.370;2023-10-19T12:58:45;10.30;99.90
9772;DHT22;4925;52.588;13.370;2023-10-19T13:01:11;10.20;99.90
9772;DHT22;4925;52.588;13.370;2023-10-19T13:03:47;10.10;99.90
9772;DHT22;4925;52.588;13.370;2023-10-19T13:06:15;10.20;99.90
9772;DHT22;4925;52.588;13.370;2023-10-19T13:08:41;10.10;99.90
9772;DHT22;4925;52.588;13.370;2023-10-19T13:11:08;10.20;99.90
9772;DHT22;4925;52.588;13.370;2023-10-19T13:13:35;10.10;99.90
9772;DHT22;4925;52.588;13.370;2023-10-19T13:16:05;10.10;99.90
9772;DHT22;4925;52.588;13.370;2023-10-19T13:18:37;10.00;99.90
9772;DHT22;4925;52.588;13.370;2023-10-19T13:21:09;10.00;99.90
9772;DHT22;4925;52.588;13.370;2023-10-19T13:23:37;9.90;99.90
9772;DHT22;4925;52.588;13.370;2023-10-19T13:26:03;10.00;99.90
9772;DHT22;4925;52.588;13.370;2023-10-19T13:28:41;10.00;99.90
9772;DHT22;4925;52.588;13.370;2023-10-19T13:31:08;10.00;99.90
9772;DHT22;4925;52.588;13.370;2023-10-19T13:33:42;10.00;99.90
9772;DHT22;4925;52.588;13.370;2023-10-19T13:36:09;10.00;99.90
9772;DHT22;4925;52.588;13.370;2023-10-19T13:38:35;9.90;99.90
9772;DHT22;4925;52.588;13.370;2023-10-19T13:41:05;9.80;99.90
9772;DHT22;4925;52.588;13.370;2023-10-19T13:43:40;9.80;99.90
9772;DHT22;4925;52.588;13.370;2023-10-19T13:46:08;9.80;99.90
9772;DHT22;4925;52.588;13.370;2023-10-19T13:48:43;9.80;99.90
9772;DHT22;4925;52.588;13.370;2023-10-19T13:51:18;9.90;99.90
9772;DHT22;4925;52.588;13.370;2023-10-19T13:53:48;9.90;99.90
9772;DHT22;4925;52.588;13.370;2023-10-19T13:56:15;9.90;99.90
9772;DHT22;4925;52.588;13.370;2023-10-19T13:58:41;9.90;99.90
9772;DHT22;4925;52.588;13.370;2023-10-19T14:01:08;10.00;99.90
9772;DHT22;4925;52.588;13.370;2023-10-19T14:03:34;9.90;99.90
9772;DHT22;4925;52.588;13.370;2023-10-19T14:06:00;9.80;99.90
9772;DHT22;4925;52.588;13.370;2023-10-19T14:08:26;9.80;99.90
9772;DHT22;4925;52.588;13.370;2023-10-19T14:10:52;9.80;99.90
9772;DHT22;4925;52.588;13.370;2023-10-19T14:13:20;9.80;99.90
9772;DHT22;4925;52.588;13.370;2023-10-19T14:15:46;9.80;99.90
9772;DHT22;4925;52.588;13.370;2023-10-19T14:18:13;9.80;99.90
9772;DHT22;4925;52.588;13.370;2023-10-19T14:20:39;9.80;99.90
9772;DHT22;4925;52.588;13.370;2023-10-19T14:23:06;9.90;99.90
9772;DHT22;4925;52.588;13.370;2023-10-19T14:25:48;9.70;99.90
9772;DHT22;4925;52.588;13.370;2023-10-19T14:28:18;9.70;99.90
9772;DHT22;4925;52.588;13.370;2023-10-19T14:30:44;9.70;99.90
9772;DHT22;4925;52.588;13.370;2023-10-19T14:33:12;9.70;99.90
9772;DHT22;4925;52.588;13.370;2023-10-19T14:35:43;9.70;99.90
9772;DHT22;4925;52.588;13.370;2023-10-19T14:38:09;9.70;99.90
9772;DHT22;4925;52.588;13.370;2023-10-19T14:40:37;9.80;99.90
9772;DHT22;4925;52.588;13.370;2023-10-19T14:43:03;9.90;99.90
9772;DHT22;4925;52.588;13.370;2023-10-19T14:45:29;9.80;99.90
9772;DHT22;4925;52.588;13.370;2023-10-19T14:47:58;9.90;99.90
9772;DHT22;4925;52.588;13.370;2023-10-19T14:50:25;9.90;99.90
9772;DHT22;4925;52.588;13.370;2023-10-19T14:52:53;9.80;99.90
9772;DHT22;4925;52.588;13.370;2023-10-19T14:55:20;9.70;99.90
9772;DHT22;4925;52.588;13.370;2023-10-19T14:57:49;9.80;99.90
9772;DHT22;4925;52.588;13.370;2023-10-19T15:00:17;9.80;99.90
9772;DHT22;4925;52.588;13.370;2023-10-19T15:03:00;9.80;99.90
9772;DHT22;4925;52.588;13.370;2023-10-19T15:05:35;9.80;99.90
9772;DHT22;4925;52.588;13.370;2023-10-19T15:08:03;9.80;99.90
9772;DHT22;4925;52.588;13.370;2023-10-19T15:10:33;9.80;99.90
9772;DHT22;4925;52.588;13.370;2023-10-19T15:13:00;9.80;99.90
9772;DHT22;4925;52.588;13.370;2023-10-19T15:15:26;9.80;99.90
9772;DHT22;4925;52.588;13.370;2023-10-19T15:17:55;9.80;99.90
9772;DHT22;4925;52.588;13.370;2023-10-19T15:20:24;9.80;99.90
9772;DHT22;4925;52.588;13.370;2023-10-19T15:22:53;9.80;99.90
9772;DHT22;4925;52.588;13.370;2023-10-19T15:25:31;9.90;99.90
9772;DHT22;4925;52.588;13.370;2023-10-19T15:27:57;9.80;99.90
9772;DHT22;4925;52.588;13.370;2023-10-19T15:30:25;9.90;99.90
9772;DHT22;4925;52.588;13.370;2023-10-19T15:32:52;9.90;99.90
9772;DHT22;4925;52.588;13.370;2023-10-19T15:35:21;10.00;99.90
9772;DHT22;4925;52.588;13.370;2023-10-19T15:37:48;10.00;99.90
9772;DHT22;4925;52.588;13.370;2023-10-19T15:40:18;10.00;99.90
9772;DHT22;4925;52.588;13.370;2023-10-19T15:42:45;10.00;99.90
9772;DHT22;4925;52.588;13.370;2023-10-19T15:45:13;10.00;99.90
9772;DHT22;4925;52.588;13.370;2023-10-19T15:47:40;9.90;99.90
9772;DHT22;4925;52.588;13.370;2023-10-19T15:50:10;9.90;99.90
9772;DHT22;4925;52.588;13.370;2023-10-19T15:52:38;9.90;99.90
9772;DHT22;4925;52.588;13.370;2023-10-19T15:55:13;10.10;99.90
9772;DHT22;4925;52.588;13.370;2023-10-19T15:57:40;10.10;99.90
9772;DHT22;4925;52.588;13.370;2023-10-19T16:00:11;10.10;99.90
9772;DHT22;4925;52.588;13.370;2023-10-19T16:02:41;10.10;99.90
9772;DHT22;4925;52.588;13.370;2023-10-19T16:05:07;10.00;99.90
9772;DHT22;4925;52.588;13.370;2023-10-19T16:07:56;10.00;99.90
9772;DHT22;4925;52.588;13.370;2023-10-19T16:10:21;9.90;99.90
9772;DHT22;4925;52.588;13.370;2023-10-19T16:12:47;9.90;99.90
9772;DHT22;4925;52.588;13.370;2023-10-19T16:15:13;9.90;99.90
9772;DHT22;4925;52.588;13.370;2023-10-19T16:17:41;9.80;99.90
9772;DHT22;4925;52.588;13.370;2023-10-19T16:20:09;9.80;99.90
9772;DHT22;4925;52.588;13.370;2023-10-19T16:22:41;9.80;99.90
9772;DHT22;4925;52.588;13.370;2023-10-19T16:25:17;9.70;99.90
9772;DHT22;4925;52.588;13.370;2023-10-19T16:27:42;9.70;99.90
9772;DHT22;4925;52.588;13.370;2023-10-19T16:30:08;9.60;99.90
9772;DHT22;4925;52.588;13.370;2023-10-19T16:32:42;9.60;99.90
9772;DHT22;4925;52.588;13.370;2023-10-19T16:35:08;9.60;99.90